Radisson, WI (54867)

7:58 PM CDT on July 10, 2014 (GMT -0500)
Dam Road (KWIWINTE2) Elev 1312 ft | 45.87 °N, 91.07 °W | Change Station

Current weather conditions updated 2 seconds ago

Partly Cloudy
Partly Cloudy
72.0 °F
Feels Like 73 °F
N
0.0
Wind Variable Wind from WSW
Gusts 0.0 mph

Tomorrow is forecast to be Cooler than today. Rain and thunder.

Today
High -- | Low -- °F
--% Chance of Precip.
Yesterday
High -- | Low -- °F
Precip. -- in
5:25 AM 8:54 PM
Waxing Gibbous, 97% visible
Pressure 30.02 in
Visibility 10.0 miles
Clouds Few 5500 ft
Heat Index 73 °F
Dew Point 65 °F
Humidity 78%
Rainfall 0.00 in
Snow Depth Not available.
UV 0.0 out of 12
Pollen 3.80 out of 12
Air Quality Not available.
Flu Activity Sporadic
METAR KHYR 110053Z AUTO 16004KT 10SM FEW055 23/17 A3002 RMK AO2 SLP165 T02280167

More Conditions Fewer Conditions

Pressure 30.02 in
Visibility 10.0 miles
Clouds Few 5500 ft
Heat Index 73 °F
Dew Point 65 °F
Humidity 78%
Rainfall 0.00 in
Snow Depth Not available.
UV 0.0 out of 12
Pollen 3.80 out of 12
Air Quality Not available.
Flu Activity Sporadic
METAR KHYR 110053Z AUTO 16004KT 10SM FEW055 23/17 A3002 RMK AO2 SLP165 T02280167

More Conditions Fewer Conditions

10-Day Weather Forecast

Almanac

Astronomy

Jul. 10, 2014 Rise Set
Actual Time 5:25 AM CDT 8:54 PM CDT
Civil Twilight 4:47 AM CDT 9:32 PM CDT
Nautical Twilight 3:58 AM CDT 10:21 PM CDT
Astronomical Twilight 2:54 AM CDT 11:25 PM CDT
Moon 7:04 PM CDT (7/10) 3:40 AM CDT (7/10)
Length of Visible Light 16h 44m
Length of Day
15h 29m
Tomorrow will be 1m 25s shorter.
Waxing Gibbous, 97% of the Moon is Illuminated
Today
Waxing Gibbous
Jul 12
Full
Jul 18
Last Quarter
Jul 26
New
Aug 3
First Quarter

Today's Extremes

State Highs State Lows

Community

WunderPhotos

Upload Photos

1,732,316 photos uploaded!

Nearby

Snow Depth

Station Depth Elevation
No new snow has been reported.

Earthquake Activity

City Distance Mag. Time & Date
No recent earthquake activity has been reported nearby.
Minimum magnitude displayed is 2.5.

Coastal Water Temperatures

Place Temperature
No Stations Reporting

Nearby Weather Stations

Station Location Temp. Heat Index Dew Point Humidity Wind Precip. Elev Updated Type
Dam Road, Winter, WI 72.0 °F 73 °F 65 °F 78% WSW  at  0.0 mph 0.00 in / hr 1312 ft 7:58 PM CDT Rapid Fire
Malar Beach, Hayward, WI 72.1 °F 74 °F 63 °F 73% SE  at  1.0 mph 0.00 in / hr 1273 ft 7:57 PM CDT Normal
Dairy Strategies HQ, Bruce, WI 74.4 °F 76 °F 64 °F 71% SE  at  0.0 mph - / hr 1099 ft 7:48 PM CDT Normal
RAWS HAYWARD WI, North Woods Beach, WI 77 °F 79 °F 63 °F 61% South  at  2 mph 0.00 in / hr 1173 ft 7:03 PM CDT MADIS
The Woods, Birchwood, WI 76.1 °F 78 °F 67 °F 73% SW  at  0.0 mph - / hr 1214 ft 7:46 PM CDT Normal
Three miles west of Seeley, Seeley, WI 73.2 °F 76 °F 62 °F 67% ESE  at  0.0 mph 0.00 in / hr 1338 ft 7:40 PM CDT Normal

Show More Stations Show Fewer Stations